createdAt,value
2023-05-21T00:00:48.680Z,98228.91
2023-05-21T00:01:50.525Z,98225.66
2023-05-21T00:02:52.554Z,98228.09
2023-05-21T00:03:54.543Z,98224.59
2023-05-21T00:04:56.383Z,98225.41
2023-05-21T00:05:58.789Z,98228.09
2023-05-21T00:07:00.927Z,98222.97
2023-05-21T00:08:02.773Z,98221.91
2023-05-21T00:09:06.452Z,98223.50
2023-05-21T00:10:09.031Z,98228.38
2023-05-21T00:11:11.163Z,98226.78
2023-05-21T00:12:13.262Z,98228.09
2023-05-21T00:13:15.331Z,98222.19
2023-05-21T00:14:17.328Z,98221.38
2023-05-21T00:15:19.356Z,98218.69
2023-05-21T00:16:22.910Z,98221.38
2023-05-21T00:17:26.076Z,98217.56
2023-05-21T00:18:28.412Z,98218.69
2023-05-21T00:19:33.633Z,98215.19
2023-05-21T00:20:35.626Z,98216.78
2023-05-21T00:21:38.186Z,98215.97
2023-05-21T00:22:42.550Z,98206.28
2023-05-21T00:23:45.518Z,98208.97
2023-05-21T00:24:47.410Z,98207.88
2023-05-21T00:25:50.516Z,98208.19
2023-05-21T00:26:52.402Z,98207.88
2023-05-21T00:27:55.589Z,98207.09
2023-05-21T00:28:57.677Z,98212.47
2023-05-21T00:29:59.577Z,98205.50
2023-05-21T00:31:01.831Z,98209.28
2023-05-21T00:32:04.288Z,98202.00
2023-05-21T00:33:06.278Z,98202.28
2023-05-21T00:34:08.207Z,98207.09
2023-05-21T00:35:10.128Z,98201.50
2023-05-21T00:36:14.430Z,98206.59
2023-05-21T00:37:16.546Z,98198.78
2023-05-21T00:38:18.815Z,98200.41
2023-05-21T00:39:21.062Z,98194.19
2023-05-21T00:40:23.047Z,98198.00
2023-05-21T00:41:26.225Z,98195.00
2023-05-21T00:42:30.934Z,98196.91
2023-05-21T00:43:33.119Z,98198.50
2023-05-21T00:44:35.534Z,98195.59
2023-05-21T00:45:38.068Z,98193.69
2023-05-21T00:46:40.928Z,98193.41
2023-05-21T00:47:45.071Z,98193.69
2023-05-21T00:48:48.714Z,98194.50
2023-05-21T00:49:54.255Z,98192.09
2023-05-21T00:50:56.718Z,98194.50
2023-05-21T00:52:01.633Z,98187.19
2023-05-21T00:53:03.916Z,98185.91
2023-05-21T00:54:06.144Z,98190.19
2023-05-21T00:55:09.720Z,98185.91
2023-05-21T00:56:11.826Z,98183.22
2023-05-21T00:57:14.598Z,98181.31
2023-05-21T00:58:18.406Z,98177.00
2023-05-21T00:59:20.605Z,98178.63
2023-05-21T01:00:24.720Z,98184.00
2023-05-21T01:01:27.828Z,98181.63
2023-05-21T01:02:33.164Z,98178.91
2023-05-21T01:03:38.652Z,98180.50
2023-05-21T01:04:40.762Z,98184.31
2023-05-21T01:05:45.241Z,98182.41
2023-05-21T01:06:47.173Z,98184.31
2023-05-21T01:07:49.141Z,98190.50
2023-05-21T01:08:51.111Z,98179.22
2023-05-21T01:09:54.243Z,98181.91
2023-05-21T01:10:58.526Z,98181.91
2023-05-21T01:12:01.056Z,98173.00
2023-05-21T01:13:03.220Z,98180.28
2023-05-21T01:14:09.362Z,98181.91
2023-05-21T01:15:12.119Z,98181.38
2023-05-21T01:16:14.255Z,98177.59
2023-05-21T01:17:16.951Z,98181.38
2023-05-21T01:18:20.183Z,98171.13
2023-05-21T01:19:24.223Z,98175.69
2023-05-21T01:20:28.566Z,98174.88
2023-05-21T01:21:31.071Z,98173.81
2023-05-21T01:22:35.702Z,98173.53
2023-05-21T01:23:37.549Z,98178.91
2023-05-21T01:24:39.444Z,98178.91
2023-05-21T01:25:42.345Z,98175.41
2023-05-21T01:26:46.550Z,98173.00
2023-05-21T01:27:49.435Z,98173.28
2023-05-21T01:28:51.668Z,98172.72
2023-05-21T01:29:53.697Z,98172.72
2023-05-21T01:31:02.875Z,98166.00
2023-05-21T01:32:34.766Z,98171.31
2023-05-21T01:33:49.341Z,98175.41
2023-05-21T01:35:14.472Z,98171.13
2023-05-21T01:36:24.417Z,98169.50
2023-05-21T01:37:40.553Z,98169.22
2023-05-21T01:38:57.591Z,98174.09
2023-05-21T01:40:10.696Z,98174.09
2023-05-21T01:41:17.030Z,98170.09
2023-05-21T01:42:23.695Z,98170.09
2023-05-21T01:43:30.018Z,98172.78
2023-05-21T01:44:34.337Z,98167.41
2023-05-21T01:45:42.147Z,98164.69
2023-05-21T01:46:44.051Z,98173.59
2023-05-21T01:47:50.451Z,98166.59
2023-05-21T01:48:56.305Z,98157.72
2023-05-21T01:50:01.701Z,98170.41
2023-05-21T01:51:06.565Z,98166.91
2023-05-21T01:52:09.351Z,98170.69
2023-05-21T01:53:11.580Z,98162.31
2023-05-21T01:54:14.226Z,98166.91
2023-05-21T01:55:16.089Z,98167.69
2023-05-21T01:56:18.158Z,98165.00
2023-05-21T01:57:21.566Z,98168.50
2023-05-21T01:58:24.202Z,98165.31
2023-05-21T01:59:26.210Z,98163.72
2023-05-21T02:00:32.599Z,98161.50
2023-05-21T02:01:34.997Z,98162.59
2023-05-21T02:02:37.018Z,98162.91
2023-05-21T02:03:38.971Z,98168.31
2023-05-21T02:04:41.491Z,98165.59
2023-05-21T02:05:43.764Z,98168.00
2023-05-21T02:06:45.753Z,98159.91
2023-05-21T02:07:48.284Z,98161.00
2023-05-21T02:08:50.269Z,98152.91
2023-05-21T02:09:52.156Z,98161.00
2023-05-21T02:10:54.083Z,98152.13
2023-05-21T02:11:56.605Z,98157.22
2023-05-21T02:12:59.339Z,98161.00
2023-05-21T02:14:01.371Z,98160.22
2023-05-21T02:15:03.994Z,98160.50
2023-05-21T02:16:10.176Z,98154.81
2023-05-21T02:17:12.037Z,98158.63
2023-05-21T02:18:18.495Z,98156.72
2023-05-21T02:19:20.707Z,98160.22
2023-05-21T02:20:22.939Z,98151.63
2023-05-21T02:21:24.787Z,98156.72
2023-05-21T02:22:26.707Z,98155.13
2023-05-21T02:23:28.613Z,98157.81
2023-05-21T02:24:31.419Z,98161.31
2023-05-21T02:25:33.933Z,98157.03
2023-05-21T02:26:36.193Z,98147.28
2023-05-21T02:27:40.709Z,98147.28
2023-05-21T02:28:42.598Z,98152.41
2023-05-21T02:29:44.593Z,98148.94
2023-05-21T02:30:46.482Z,98147.03
2023-05-21T02:31:48.407Z,98153.50
2023-05-21T02:32:50.828Z,98149.50
2023-05-21T02:33:52.884Z,98146.50
2023-05-21T02:34:54.934Z,98148.69
2023-05-21T02:35:56.973Z,98142.22
2023-05-21T02:36:59.221Z,98146.00
2023-05-21T02:38:03.175Z,98140.59
2023-05-21T02:39:05.295Z,98144.91
2023-05-21T02:40:10.166Z,98143.31
2023-05-21T02:41:12.554Z,98154.91
2023-05-21T02:42:14.522Z,98144.09
2023-05-21T02:43:16.848Z,98143.31
2023-05-21T02:44:19.307Z,98150.59
2023-05-21T02:45:21.361Z,98147.09
2023-05-21T02:46:23.312Z,98149.78
2023-05-21T02:47:25.930Z,98149.31
2023-05-21T02:48:28.247Z,98146.59
2023-05-21T02:49:30.085Z,98152.00
2023-05-21T02:50:32.105Z,98149.31
2023-05-21T02:51:34.041Z,98148.19
2023-05-21T02:52:35.939Z,98149.78
2023-05-21T02:53:38.830Z,98148.50
2023-05-21T02:54:40.968Z,98152.00
2023-05-21T02:55:43.149Z,98146.91
2023-05-21T02:56:45.241Z,98143.09
2023-05-21T02:57:48.110Z,98146.91
2023-05-21T02:58:50.006Z,98146.09
2023-05-21T02:59:51.928Z,98141.50
2023-05-21T03:00:53.979Z,98148.00
2023-05-21T03:01:56.023Z,98147.22
2023-05-21T03:02:57.874Z,98139.63
2023-05-21T03:04:00.155Z,98146.09
2023-05-21T03:05:02.819Z,98148.81
2023-05-21T03:06:05.009Z,98148.31
2023-05-21T03:07:06.928Z,98148.31
2023-05-21T03:08:08.822Z,98145.59
2023-05-21T03:09:10.961Z,98141.28
2023-05-21T03:10:12.910Z,98146.41
2023-05-21T03:11:14.920Z,98141.28
2023-05-21T03:12:16.772Z,98140.47
2023-05-21T03:13:18.692Z,98142.09
2023-05-21T03:14:20.618Z,98143.19
2023-05-21T03:15:24.459Z,98137.00
2023-05-21T03:16:26.459Z,98142.38
2023-05-21T03:17:28.315Z,98144.78
2023-05-21T03:18:30.168Z,98140.47
2023-05-21T03:19:35.885Z,98148.88
2023-05-21T03:20:43.637Z,98143.47
2023-05-21T03:21:45.644Z,98133.50
2023-05-21T03:22:48.318Z,98142.97
2023-05-21T03:23:51.702Z,98135.69
2023-05-21T03:24:53.830Z,98146.19
2023-05-21T03:25:55.708Z,98139.19
2023-05-21T03:26:57.575Z,98137.59
2023-05-21T03:27:59.702Z,98145.69
2023-05-21T03:29:01.571Z,98139.19
2023-05-21T03:30:06.026Z,98131.91
2023-05-21T03:31:08.565Z,98142.50
2023-05-21T03:32:10.772Z,98141.09
2023-05-21T03:33:16.499Z,98133.00
2023-05-21T03:34:20.092Z,98141.38
2023-05-21T03:35:22.142Z,98138.69
2023-05-21T03:36:24.000Z,98147.88
2023-05-21T03:37:26.147Z,98134.69
2023-05-21T03:38:28.273Z,98143.59
2023-05-21T03:39:30.221Z,98143.59
2023-05-21T03:40:32.066Z,98141.69
2023-05-21T03:41:34.195Z,98141.69
2023-05-21T03:42:36.194Z,98141.19
2023-05-21T03:43:38.098Z,98148.47
2023-05-21T03:44:40.046Z,98143.09
2023-05-21T03:45:44.365Z,98142.78
2023-05-21T03:46:46.542Z,98132.81
2023-05-21T03:47:49.670Z,98139.28
2023-05-21T03:48:51.808Z,98138.78
2023-05-21T03:49:54.017Z,98145.00
2023-05-21T03:50:56.161Z,98143.59
2023-05-21T03:51:58.002Z,98137.69
2023-05-21T03:52:59.954Z,98143.34
2023-05-21T03:54:02.101Z,98139.59
2023-05-21T03:55:04.329Z,98142.28
2023-05-21T03:56:06.616Z,98143.34
2023-05-21T03:57:08.565Z,98143.09
2023-05-21T03:58:11.007Z,98139.59
2023-05-21T03:59:12.918Z,98134.47
2023-05-21T04:00:15.115Z,98135.56
2023-05-21T04:01:17.835Z,98146.06
2023-05-21T04:02:21.561Z,98145.00
2023-05-21T04:03:23.616Z,98150.66
2023-05-21T04:04:25.813Z,98145.56
2023-05-21T04:05:27.733Z,98145.56
2023-05-21T04:06:30.284Z,98143.66
2023-05-21T04:07:32.371Z,98145.25
2023-05-21T04:08:34.379Z,98143.66
2023-05-21T04:09:36.839Z,98146.66
2023-05-21T04:10:38.838Z,98140.47
2023-05-21T04:11:40.804Z,98138.56
2023-05-21T04:12:42.733Z,98143.16
2023-05-21T04:13:44.658Z,98148.56
2023-05-21T04:14:47.296Z,98146.16
2023-05-21T04:15:49.497Z,98147.44
2023-05-21T04:16:51.501Z,98148.56
2023-05-21T04:17:54.671Z,98145.06
2023-05-21T04:18:56.798Z,98150.44
2023-05-21T04:19:59.008Z,98156.63
2023-05-21T04:21:02.497Z,98155.03
2023-05-21T04:22:05.211Z,98158.81
2023-05-21T04:23:07.159Z,98158.81
2023-05-21T04:24:08.954Z,98148.84
2023-05-21T04:25:10.905Z,98149.91
2023-05-21T04:26:13.189Z,98155.03
2023-05-21T04:27:16.546Z,98151.81
2023-05-21T04:28:21.323Z,98152.34
2023-05-21T04:29:23.564Z,98159.63
2023-05-21T04:30:25.639Z,98161.50
2023-05-21T04:31:27.588Z,98161.00
2023-05-21T04:32:31.114Z,98161.00
2023-05-21T04:33:33.248Z,98168.00
2023-05-21T04:34:35.168Z,98168.00
2023-05-21T04:35:37.323Z,98164.50
2023-05-21T04:36:39.446Z,98169.59
2023-05-21T04:37:42.268Z,98167.19
2023-05-21T04:38:44.410Z,98173.38
2023-05-21T04:39:46.996Z,98166.09
2023-05-21T04:40:52.778Z,98168.00
2023-05-21T04:41:56.969Z,98169.88
2023-05-21T04:43:00.787Z,98168.28
2023-05-21T04:44:02.733Z,98177.19
2023-05-21T04:45:05.199Z,98169.38
2023-05-21T04:46:07.052Z,98176.38
2023-05-21T04:47:08.952Z,98177.19
2023-05-21T04:48:11.012Z,98175.59
2023-05-21T04:49:12.831Z,98174.47
2023-05-21T04:50:14.762Z,98182.56
2023-05-21T04:51:16.686Z,98181.78
2023-05-21T04:52:18.664Z,98183.38
2023-05-21T04:53:21.006Z,98184.47
2023-05-21T04:54:23.341Z,98178.28
2023-05-21T04:55:25.923Z,98179.88
2023-05-21T04:56:28.011Z,98184.16
2023-05-21T04:57:29.902Z,98177.19
2023-05-21T04:58:34.186Z,98174.97
2023-05-21T04:59:36.325Z,98178.78
2023-05-21T05:00:39.431Z,98183.38
2023-05-21T05:01:43.920Z,98180.97
2023-05-21T05:02:45.981Z,98184.97
2023-05-21T05:03:47.918Z,98181.47
2023-05-21T05:04:49.885Z,98180.19
2023-05-21T05:05:51.944Z,98176.38
2023-05-21T05:06:53.857Z,98183.66
2023-05-21T05:07:56.267Z,98178.28
2023-05-21T05:08:58.202Z,98175.59
2023-05-21T05:10:00.372Z,98171.28
2023-05-21T05:11:02.884Z,98169.38
2023-05-21T05:12:05.723Z,98170.50
2023-05-21T05:13:07.846Z,98173.69
2023-05-21T05:14:09.783Z,98171.00
2023-05-21T05:15:11.794Z,98176.38
2023-05-21T05:16:17.361Z,98171.00
2023-05-21T05:17:20.045Z,98179.06
2023-05-21T05:18:21.957Z,98179.56
2023-05-21T05:19:24.041Z,98173.38
2023-05-21T05:20:25.955Z,98170.19
2023-05-21T05:21:28.025Z,98177.19
2023-05-21T05:22:29.989Z,98174.78
2023-05-21T05:23:32.070Z,98173.69
2023-05-21T05:24:34.052Z,98180.97
2023-05-21T05:25:36.221Z,98176.38
2023-05-21T05:26:38.221Z,98180.97
2023-05-21T05:27:40.423Z,98178.28
2023-05-21T05:28:42.229Z,98178.78
2023-05-21T05:29:48.256Z,98169.88
2023-05-21T05:30:50.200Z,98174.47
2023-05-21T05:31:52.148Z,98174.97
2023-05-21T05:32:54.043Z,98176.09
2023-05-21T05:33:56.273Z,98180.69
2023-05-21T05:34:59.137Z,98175.28
2023-05-21T05:36:02.553Z,98175.28
2023-05-21T05:37:05.349Z,98176.09
2023-05-21T05:38:09.100Z,98173.38
2023-05-21T05:39:11.234Z,98171.78
2023-05-21T05:40:13.288Z,98171.50
2023-05-21T05:41:15.278Z,98174.47
2023-05-21T05:42:17.118Z,98172.59
2023-05-21T05:43:19.152Z,98169.88
2023-05-21T05:44:21.045Z,98171.78
2023-05-21T05:45:23.055Z,98172.59
2023-05-21T05:46:24.927Z,98183.38
2023-05-21T05:47:26.857Z,98176.88
2023-05-21T05:48:29.437Z,98177.97
2023-05-21T05:49:31.301Z,98171.78
2023-05-21T05:50:33.395Z,98177.19
2023-05-21T05:51:35.312Z,98182.28
2023-05-21T05:52:37.496Z,98175.28
2023-05-21T05:53:39.652Z,98174.47
2023-05-21T05:54:41.646Z,98175.28
2023-05-21T05:55:43.862Z,98175.28
2023-05-21T05:56:45.896Z,98168.78
2023-05-21T05:57:47.962Z,98174.97
2023-05-21T05:58:49.845Z,98177.97
2023-05-21T05:59:51.775Z,98181.22
2023-05-21T06:00:54.253Z,98174.97
2023-05-21T06:01:56.135Z,98176.88
2023-05-21T06:02:58.137Z,98185.78
2023-05-21T06:04:00.289Z,98183.91
2023-05-21T06:05:02.853Z,98183.91
2023-05-21T06:06:04.810Z,98191.16
2023-05-21T06:07:06.730Z,98182.81
2023-05-21T06:08:08.600Z,98180.38
2023-05-21T06:09:11.051Z,98180.09
2023-05-21T06:10:13.040Z,98184.69
2023-05-21T06:11:19.264Z,98182.00
2023-05-21T06:12:21.301Z,98184.69
2023-05-21T06:13:23.200Z,98180.59
2023-05-21T06:14:25.010Z,98182.50
2023-05-21T06:15:26.868Z,98179.81
2023-05-21T06:16:31.501Z,98184.41
2023-05-21T06:17:34.823Z,98182.81
2023-05-21T06:18:37.530Z,98187.09
2023-05-21T06:19:40.210Z,98178.22
2023-05-21T06:20:42.199Z,98181.72
2023-05-21T06:21:44.026Z,98177.91
2023-05-21T06:22:46.011Z,98178.22
2023-05-21T06:23:48.096Z,98186.81
2023-05-21T06:24:50.030Z,98185.19
2023-05-21T06:25:51.941Z,98186.81
2023-05-21T06:26:53.826Z,98181.41
2023-05-21T06:27:56.866Z,98186.81
2023-05-21T06:28:59.027Z,98184.09
2023-05-21T06:30:00.886Z,98183.81
2023-05-21T06:31:02.834Z,98177.63
2023-05-21T06:32:05.108Z,98180.31
2023-05-21T06:33:07.198Z,98176.53
2023-05-21T06:34:09.157Z,98178.41
2023-05-21T06:35:11.547Z,98180.03
2023-05-21T06:36:13.651Z,98188.13
2023-05-21T06:37:21.490Z,98181.34
2023-05-21T06:38:23.580Z,98180.53
2023-05-21T06:39:27.093Z,98180.84
2023-05-21T06:40:29.062Z,98184.03
2023-05-21T06:41:31.082Z,98183.22
2023-05-21T06:42:33.016Z,98175.94
2023-05-21T06:43:34.990Z,98181.34
2023-05-21T06:44:37.022Z,98186.72
2023-05-21T06:45:39.708Z,98184.03
2023-05-21T06:46:43.014Z,98181.03
2023-05-21T06:47:44.975Z,98188.84
2023-05-21T06:48:47.235Z,98184.84
2023-05-21T06:49:49.320Z,98183.72
2023-05-21T06:50:51.534Z,98183.72
2023-05-21T06:51:53.425Z,98193.41
2023-05-21T06:52:55.562Z,98195.31
2023-05-21T06:53:57.389Z,98196.91
2023-05-21T06:54:59.259Z,98195.81
2023-05-21T06:56:01.363Z,98195.03
2023-05-21T06:57:03.346Z,98197.41
2023-05-21T06:58:06.615Z,98192.03
2023-05-21T06:59:08.788Z,98197.91
2023-05-21T07:00:12.181Z,98192.31
2023-05-21T07:01:14.116Z,98193.63
2023-05-21T07:02:17.023Z,98190.44
2023-05-21T07:03:19.058Z,98188.53
2023-05-21T07:04:21.034Z,98195.53
2023-05-21T07:05:23.168Z,98195.22
2023-05-21T07:06:25.280Z,98192.25
2023-05-21T07:07:27.380Z,98187.94
2023-05-21T07:08:29.588Z,98191.47
2023-05-21T07:09:31.724Z,98199.25
2023-05-21T07:10:33.647Z,98198.16
2023-05-21T07:11:35.769Z,98194.34
2023-05-21T07:12:37.627Z,98190.84
2023-05-21T07:13:39.738Z,98194.34
2023-05-21T07:14:41.914Z,98189.75
2023-05-21T07:15:44.066Z,98193.25
2023-05-21T07:16:46.018Z,98188.66
2023-05-21T07:17:48.134Z,98201.53
2023-05-21T07:18:50.264Z,98194.84
2023-05-21T07:19:52.386Z,98176.78
2023-05-21T07:20:54.236Z,98185.34
2023-05-21T07:21:57.928Z,98195.06
2023-05-21T07:22:59.935Z,98196.66
2023-05-21T07:24:02.123Z,98190.75
2023-05-21T07:25:04.954Z,98191.56
2023-05-21T07:26:06.973Z,98194.47
2023-05-21T07:27:24.281Z,98190.19
2023-05-21T07:28:27.523Z,98190.69
2023-05-21T07:29:29.345Z,98192.88
2023-05-21T07:30:31.199Z,98190.97
2023-05-21T07:31:33.176Z,98196.88
2023-05-21T07:32:35.252Z,98195.28
2023-05-21T07:33:37.184Z,98196.88
2023-05-21T07:34:39.060Z,98193.38
2023-05-21T07:35:41.035Z,98189.59
2023-05-21T07:36:43.015Z,98192.28
2023-05-21T07:37:44.949Z,98193.09
2023-05-21T07:38:46.829Z,98190.38
2023-05-21T07:39:48.678Z,98187.69
2023-05-21T07:40:50.496Z,98188.47
2023-05-21T07:41:52.424Z,98192.78
2023-05-21T07:42:54.696Z,98195.19
2023-05-21T07:43:56.631Z,98190.38
2023-05-21T07:44:58.492Z,98184.38
2023-05-21T07:46:00.538Z,98188.69
2023-05-21T07:47:02.570Z,98191.38
2023-05-21T07:48:04.684Z,98176.28
2023-05-21T07:49:06.900Z,98185.69
2023-05-21T07:50:09.519Z,98185.69
2023-05-21T07:51:12.159Z,98182.97
2023-05-21T07:52:14.010Z,98185.69
2023-05-21T07:53:17.529Z,98187.31
2023-05-21T07:54:19.783Z,98184.31
2023-05-21T07:55:21.806Z,98185.09
2023-05-21T07:56:23.763Z,98186.22
2023-05-21T07:57:26.172Z,98192.09
2023-05-21T07:58:28.138Z,98189.91
2023-05-21T07:59:30.068Z,98182.91
2023-05-21T08:00:47.638Z,98186.09
2023-05-21T08:01:49.641Z,98187.19
2023-05-21T08:02:52.572Z,98191.00
2023-05-21T08:03:54.812Z,98187.69
2023-05-21T08:04:57.989Z,98188.19
2023-05-21T08:05:59.986Z,98185.50
2023-05-21T08:07:01.958Z,98182.00
2023-05-21T08:08:05.546Z,98192.28
2023-05-21T08:09:08.067Z,98185.00
2023-05-21T08:10:10.197Z,98190.69
2023-05-21T08:11:12.018Z,98187.50
2023-05-21T08:12:16.585Z,98192.09
2023-05-21T08:13:18.530Z,98189.72
2023-05-21T08:14:20.361Z,98185.91
2023-05-21T08:15:22.770Z,98187.59
2023-05-21T08:16:24.816Z,98185.19
2023-05-21T08:17:28.468Z,98188.97
2023-05-21T08:18:30.664Z,98188.47
2023-05-21T08:19:33.006Z,98185.28
2023-05-21T08:20:35.111Z,98189.38
2023-05-21T08:21:37.311Z,98185.59
2023-05-21T08:22:39.464Z,98184.00
2023-05-21T08:23:41.293Z,98182.66
2023-05-21T08:24:43.364Z,98185.84
2023-05-21T08:25:45.245Z,98178.88
2023-05-21T08:26:48.545Z,98180.28
2023-05-21T08:27:52.344Z,98182.16
2023-05-21T08:28:54.651Z,98183.75
2023-05-21T08:29:56.608Z,98186.47
2023-05-21T08:30:58.757Z,98186.25
2023-05-21T08:32:01.016Z,98185.16
2023-05-21T08:33:02.939Z,98180.88
2023-05-21T08:34:04.852Z,98185.47
2023-05-21T08:35:08.706Z,98180.38
2023-05-21T08:36:10.673Z,98190.34
2023-05-21T08:37:12.530Z,98179.56
2023-05-21T08:38:16.892Z,98188.47
2023-05-21T08:39:18.770Z,98190.63
2023-05-21T08:40:20.978Z,98196.31
2023-05-21T08:41:24.598Z,98190.94
2023-05-21T08:42:47.300Z,98179.03
2023-05-21T08:43:58.356Z,98179.63
2023-05-21T08:45:01.190Z,98188.53
2023-05-21T08:46:05.011Z,98183.13
2023-05-21T08:47:13.131Z,98180.13
2023-05-21T08:48:17.841Z,98182.84
2023-05-21T08:49:28.661Z,98193.63
2023-05-21T08:50:32.797Z,98191.22
2023-05-21T08:51:34.974Z,98195.53
2023-05-21T08:52:37.403Z,98192.03
2023-05-21T08:53:39.343Z,98199.03
2023-05-21T08:54:42.058Z,98188.22
2023-05-21T08:55:44.770Z,98186.88
2023-05-21T08:56:49.932Z,98194.97
2023-05-21T08:57:55.054Z,98196.25
2023-05-21T08:58:58.721Z,98190.06
2023-05-21T09:00:02.027Z,98193.25
2023-05-21T09:01:05.391Z,98194.06
2023-05-21T09:02:08.854Z,98194.56
2023-05-21T09:03:13.737Z,98197.25
2023-05-21T09:04:21.284Z,98194.25
2023-05-21T09:05:25.236Z,98192.09
2023-05-21T09:06:27.756Z,98193.69
2023-05-21T09:07:31.768Z,98190.97
2023-05-21T09:08:39.051Z,98192.28
2023-05-21T09:09:54.163Z,98192.78
2023-05-21T09:10:56.158Z,98198.66
2023-05-21T09:11:58.018Z,98193.28
2023-05-21T09:13:00.850Z,98193.56
2023-05-21T09:14:04.062Z,98192.97
2023-05-21T09:15:07.638Z,98192.41
2023-05-21T09:16:11.019Z,98189.19
2023-05-21T09:17:15.480Z,98193.19
2023-05-21T09:18:17.511Z,98193.69
2023-05-21T09:19:23.004Z,98197.19
2023-05-21T09:20:26.858Z,98189.91
2023-05-21T09:21:31.421Z,98193.91
2023-05-21T09:22:33.697Z,98193.91
2023-05-21T09:23:35.670Z,98190.09
2023-05-21T09:24:37.549Z,98188.19
2023-05-21T09:25:40.007Z,98185.50
2023-05-21T09:26:45.128Z,98193.03
2023-05-21T09:27:47.211Z,98195.72
2023-05-21T09:28:49.155Z,98191.13
2023-05-21T09:29:51.373Z,98191.91
2023-05-21T09:30:56.169Z,98192.41
2023-05-21T09:31:59.305Z,98188.63
2023-05-21T09:33:01.710Z,98191.31
2023-05-21T09:34:03.806Z,98192.63
2023-05-21T09:35:10.782Z,98188.81
2023-05-21T09:36:13.097Z,98187.72
2023-05-21T09:37:26.530Z,98186.13
2023-05-21T09:38:30.299Z,98190.97
2023-05-21T09:39:32.093Z,98190.97
2023-05-21T09:40:36.026Z,98192.56
2023-05-21T09:41:38.603Z,98187.97
2023-05-21T09:42:41.907Z,98188.75
2023-05-21T09:43:44.769Z,98191.16
2023-05-21T09:44:48.107Z,98178.75
2023-05-21T09:45:55.425Z,98186.25
2023-05-21T09:46:59.636Z,98185.47
2023-05-21T09:48:01.675Z,98182.44
2023-05-21T09:49:03.567Z,98185.94
2023-05-21T09:50:06.642Z,98184.06
2023-05-21T09:51:19.839Z,98182.16
2023-05-21T09:52:28.516Z,98183.47
2023-05-21T09:53:30.409Z,98182.69
2023-05-21T09:54:34.295Z,98187.28
2023-05-21T09:55:36.691Z,98184.56
2023-05-21T09:56:40.466Z,98180.78
2023-05-21T09:57:43.591Z,98183.97
2023-05-21T09:58:46.281Z,98180.16
2023-05-21T09:59:50.899Z,98187.16
2023-05-21T10:00:53.547Z,98174.78
2023-05-21T10:01:55.628Z,98178.75
2023-05-21T10:03:01.571Z,98180.06
2023-05-21T10:04:08.405Z,98178.94
2023-05-21T10:05:14.615Z,98185.16
2023-05-21T10:06:19.152Z,98180.06
2023-05-21T10:07:26.405Z,98180.56
2023-05-21T10:08:35.977Z,98177.56
2023-05-21T10:09:38.960Z,98179.47
2023-05-21T10:10:43.721Z,98175.66
2023-05-21T10:11:49.631Z,98176.16
2023-05-21T10:13:09.317Z,98178.25
2023-05-21T10:14:22.509Z,98169.34
2023-05-21T10:15:26.379Z,98172.84
2023-05-21T10:16:32.785Z,98175.56
2023-05-21T10:17:35.558Z,98169.06
2023-05-21T10:18:40.017Z,98172.56
2023-05-21T10:19:43.875Z,98171.16
2023-05-21T10:20:46.725Z,98171.44
2023-05-21T10:21:51.949Z,98177.38
2023-05-21T10:22:55.869Z,98176.56
2023-05-21T10:23:58.559Z,98173.56
2023-05-21T10:25:03.683Z,98169.75
2023-05-21T10:26:08.195Z,98170.56
2023-05-21T10:27:11.681Z,98165.47
2023-05-21T10:28:18.279Z,98162.16
2023-05-21T10:29:22.945Z,98159.94
2023-05-21T10:30:25.643Z,98161.06
2023-05-21T10:31:28.590Z,98156.75
2023-05-21T10:32:32.185Z,98155.34
2023-05-21T10:33:36.528Z,98160.75
2023-05-21T10:34:38.965Z,98166.94
2023-05-21T10:35:41.174Z,98162.88
2023-05-21T10:36:44.971Z,98163.94
2023-05-21T10:37:47.167Z,98160.16
2023-05-21T10:38:49.228Z,98165.56
2023-05-21T10:39:52.349Z,98156.84
2023-05-21T10:40:55.808Z,98159.56
2023-05-21T10:42:38.179Z,98161.03
2023-05-21T10:44:26.685Z,98159.63
2023-05-21T10:46:05.761Z,98163.13
2023-05-21T10:47:58.854Z,98165.53
2023-05-21T10:49:50.982Z,98166.63
2023-05-21T10:51:36.975Z,98165.63
2023-05-21T10:53:17.121Z,98167.44
2023-05-21T10:55:14.749Z,98161.53
2023-05-21T10:56:46.697Z,98157.84
2023-05-21T10:58:15.185Z,98157.53
2023-05-21T10:59:46.728Z,98154.81
2023-05-21T11:00:50.094Z,98154.63
2023-05-21T11:01:53.196Z,98154.94
2023-05-21T11:02:56.029Z,98155.75
2023-05-21T11:03:58.326Z,98153.03
2023-05-21T11:05:02.080Z,98151.13
2023-05-21T11:06:06.592Z,98157.84
2023-05-21T11:07:09.150Z,98155.13
2023-05-21T11:08:31.666Z,98151.53
2023-05-21T11:09:33.841Z,98150.75
2023-05-21T11:10:41.094Z,98149.91
2023-05-21T11:12:00.281Z,98156.94
2023-05-21T11:13:19.844Z,98149.03
2023-05-21T11:14:39.566Z,98152.53
2023-05-21T11:16:05.262Z,98146.03
2023-05-21T11:17:10.291Z,98147.91
2023-05-21T11:18:14.420Z,98149.31
2023-05-21T11:19:20.073Z,98151.72
2023-05-21T11:20:34.603Z,98147.13
2023-05-21T11:21:36.729Z,98147.13
2023-05-21T11:22:38.851Z,98145.72
2023-05-21T11:24:01.328Z,98155.91
2023-05-21T11:25:04.084Z,98150.03
2023-05-21T11:26:07.242Z,98150.03
2023-05-21T11:27:09.711Z,98148.13
2023-05-21T11:28:11.567Z,98150.53
2023-05-21T11:29:14.642Z,98151.34
2023-05-21T11:30:19.619Z,98145.13
2023-05-21T11:31:30.387Z,98144.84
2023-05-21T11:32:32.396Z,98138.34
2023-05-21T11:33:34.354Z,98152.63
2023-05-21T11:34:48.939Z,98144.22
2023-05-21T11:35:54.355Z,98146.13
2023-05-21T11:37:23.355Z,98140.09
2023-05-21T11:38:31.128Z,98141.22
2023-05-21T11:39:40.342Z,98141.53
2023-05-21T11:40:55.189Z,98143.59
2023-05-21T11:42:01.731Z,98142.81
2023-05-21T11:43:06.189Z,98138.50
2023-05-21T11:44:09.242Z,98136.91
2023-05-21T11:45:11.363Z,98135.00
2023-05-21T11:46:15.011Z,98133.09
2023-05-21T11:47:19.065Z,98134.69
2023-05-21T11:48:27.364Z,98129.78
2023-05-21T11:49:31.559Z,98129.78
2023-05-21T11:50:34.747Z,98130.31
2023-05-21T11:51:37.178Z,98128.69
2023-05-21T11:52:40.490Z,98136.50
2023-05-21T11:53:44.326Z,98136.50
2023-05-21T11:54:55.625Z,98130.47
2023-05-21T11:56:00.073Z,98129.69
2023-05-21T11:57:06.011Z,98136.69
2023-05-21T11:58:09.273Z,98132.88
2023-05-21T11:59:17.995Z,98129.88
2023-05-21T12:00:21.610Z,98124.78
2023-05-21T12:01:24.937Z,98136.69
2023-05-21T12:02:32.112Z,98134.47
2023-05-21T12:03:37.364Z,98133.38
2023-05-21T12:04:39.430Z,98129.88
2023-05-21T12:05:49.045Z,98133.38
2023-05-21T12:06:51.949Z,98134.97
2023-05-21T12:07:54.972Z,98123.03
2023-05-21T12:08:58.266Z,98139.25
2023-05-21T12:10:01.330Z,98132.75
2023-05-21T12:11:03.357Z,98136.25
2023-05-21T12:12:06.548Z,98137.06
2023-05-21T12:13:08.719Z,98133.53
2023-05-21T12:14:11.393Z,98130.84
2023-05-21T12:15:13.844Z,98129.44
2023-05-21T12:16:15.862Z,98126.44
2023-05-21T12:17:20.258Z,98141.84
2023-05-21T12:18:22.537Z,98138.84
2023-05-21T12:19:24.659Z,98134.56
2023-05-21T12:20:28.438Z,98141.53
2023-05-21T12:21:31.537Z,98131.53
2023-05-21T12:22:33.392Z,98131.53
2023-05-21T12:23:36.363Z,98131.22
2023-05-21T12:24:39.453Z,98132.50
2023-05-21T12:25:41.828Z,98135.22
2023-05-21T12:26:48.139Z,98137.91
2023-05-21T12:27:57.911Z,98138.44
2023-05-21T12:29:00.181Z,98135.22
2023-05-21T12:30:02.347Z,98138.44
2023-05-21T12:31:04.405Z,98135.72
2023-05-21T12:32:09.948Z,98138.13
2023-05-21T12:33:12.182Z,98136.22